WAGO2: Chouteau Lock And Dam (L&D 17)

Data processed at Thu Jan 04 2018 23:33


All information presented herein is the property of the government of the United States of America and may be revised or deleted at any time without prior notice.
Dissemination of this information without the expressed written consent of the Public Affairs Office, Tulsa District U.S. Army Corps of Engineers is strictly prohibited.
These data are gathered electronically and, as presented, have not undergone any form of quality control. These data are not guaranteed to be valid or correct.
Go to home page.
Go to station list.

Upstream stations:

Downstream station:
Previous Day
Next Day
Current Day
    
SHEF ID:       WAGO2     Chouteau Lock And Dam (L&D 17)
STATION TYPE:  NAVIGATION LOCK
Normal Pool:  Bottom =   511.50, Top =   511.50

               PRECIP ELEVATION   STORAGE   TW-ELEV    INFLOW   RELEASE  AIR-TEMP  WIND-DIRWIND-SPEED REL-HUMID SOLAR-RAD   VOLTAGE  BAT-LOAD
                   in        ft     ac-ft        ft       cfs       cfs         F       deg       mph         %      W/m2      volt      volt
              Ccp-Rev   Ccp-Rev   Ccp-Rev   Ccp-Rev  Regi-Rev  Regi-Rev   Ccp-Rev   Ccp-Rev   Ccp-Rev   Ccp-Rev   Ccp-Rev   Ccp-Rev   Ccp-Rev
(US/Central)
01/02 00:00      0.00    511.44     23569    489.50         0         0     13.12    346.60      3.40     56.53      0.00     13.55     13.09
01/02 01:00      0.00    511.43     23546    489.62         0         0     11.73    344.60      4.00     64.61      0.00     13.50     13.09
01/02 02:00      0.00    511.42     23523    489.57         0         0     10.65    330.40      2.60     70.58      0.00     13.57     13.09
01/02 03:00      0.00    511.42     23523    489.64         0         0     11.93     13.00      1.20     71.18      0.00     13.55     13.09
01/02 04:00      0.00    511.55     23818    489.65         0         0     13.06     35.00      0.40     65.80      0.00     13.56     13.10
01/02 05:00      0.00    511.39     23455    489.57         0         0     13.95     57.40      0.80     63.99      0.00     13.50     13.10
01/02 06:00      0.00    511.22     23069    489.63         0         0     14.29     14.40      1.00     65.86      0.00     13.58     13.09
01/02 07:00      0.00    510.70     21889    489.81         0         0     14.67     11.80      0.90     71.54      0.00     13.57     13.09
01/02 08:00      0.00    511.38     23433    490.17         0         0     14.47    341.70      0.60     74.48      0.00     13.50     13.09
01/02 09:00      0.00    511.49     23682    490.01         0         0     15.31    330.00      1.20     68.96     39.50     13.50     13.09
01/02 10:00      0.00    511.38     23433    490.00         0         0     16.54    235.70      1.40     58.84     82.30     13.57     13.09
01/02 11:00      0.00    511.37     23410    490.07         0         0     18.05    156.20      1.10     50.76    102.70     13.59     13.08
01/02 12:00      0.00    511.43     23546    489.77         0         0     19.09    169.20      1.60     45.25    136.40     13.55     13.09
01/02 13:00      0.00    510.98     22525    489.76         0         0     20.46    315.90      2.60     43.26    319.30     13.56     13.09
01/02 14:00      0.00    511.27     23183    489.89         0         0     21.16    341.60      2.70     42.58    189.10     13.55     13.09
01/02 15:00      0.00    511.41     23501    490.03         0         0     21.81    331.60      3.20     42.74    175.20     13.57     13.09
01/02 16:00      0.00    511.36     23387    489.98         0         0     22.32    327.60      4.20     41.67    130.10     13.51     12.78
01/02 17:00      0.00    511.39     23455    489.83         0         0     22.08    336.10      3.00     43.04     35.70     13.60     13.09
01/02 18:00      0.00    511.45     23591    489.75         0         0     21.94     78.60      1.20     44.50      0.00     13.58     13.09
01/02 19:00      0.00    511.39     23455    489.82         0         0     21.72    161.30      1.60     44.64      0.00     13.50     13.09
01/02 20:00      0.00    511.39     23455    489.98        18         0     20.70    235.20      0.70     48.61      0.00     13.50     13.09
01/02 21:00      0.00    511.40     23478    490.01        37         0     19.53    158.80      1.80     50.98      0.00     13.59     13.09
01/02 22:00      0.00    511.43     23546    489.95        55         0     17.80    168.10      1.40     56.60      0.00     13.55     13.09
01/02 23:00      0.00    511.42     23523    489.96        55         0     16.66    238.10      1.10     58.38      0.00     13.56     13.09